Time;durP1;ratioP1;P1;durP2;ratioP2;P2;SDS_P1;SDS_P2;PMS_P1;PMS_P2;Temp;Humidity;BMP_temperature;BMP_pressure;BME280_temperature;BME280_humidity;BME280_pressure;Samples;Min_cycle;Max_cycle;Signal;HPM_P1;HPM_P2
2022/10/24 00:01:11;;;;;;;;;;;14.40;99.90;;;;;;4791007;29;20214;-55
2022/10/24 00:03:39;;;;;;;21.20;3.08;;;14.30;99.90;;;;;;4804784;29;20732;-55
2022/10/24 00:06:07;;;;;;;8.35;2.35;;;14.20;99.90;;;;;;4789998;29;20408;-54
2022/10/24 00:08:36;;;;;;;7.55;2.50;;;14.10;99.90;;;;;;4790450;29;20607;-56
2022/10/24 00:11:08;;;;;;;12.52;2.03;;;14.00;99.90;;;;;;4791317;29;20582;-55
2022/10/24 00:13:35;;;;;;;13.07;2.72;;;13.90;99.90;;;;;;4789462;29;20681;-53
2022/10/24 00:16:02;;;;;;;14.15;2.50;;;14.10;99.90;;;;;;4790183;29;20041;-54
2022/10/24 00:18:29;;;;;;;18.25;3.45;;;14.30;99.90;;;;;;4790022;29;20181;-55
2022/10/24 00:20:56;;;;;;;16.33;2.88;;;14.30;99.90;;;;;;4787143;29;20052;-54
2022/10/24 00:23:23;;;;;;;15.73;3.60;;;14.30;99.90;;;;;;4789056;29;20053;-55
2022/10/24 00:25:50;;;;;;;15.05;3.33;;;14.30;99.90;;;;;;4789526;29;20726;-55
2022/10/24 00:28:17;;;;;;;13.88;3.55;;;14.20;99.90;;;;;;4790559;29;20057;-55
2022/10/24 00:30:44;;;;;;;;;;;14.20;99.90;;;;;;4789020;29;20109;-55
2022/10/24 00:33:11;;;;;;;30.00;4.50;;;14.10;99.90;;;;;;4790591;29;19928;-53
2022/10/24 00:35:38;;;;;;;26.20;3.45;;;13.90;99.90;;;;;;4789252;29;20139;-54
2022/10/24 00:38:04;;;;;;;16.27;3.70;;;13.80;99.90;;;;;;4789362;29;20566;-54
2022/10/24 00:40:32;;;;;;;21.17;4.40;;;13.70;99.90;;;;;;4789065;29;20053;-54
2022/10/24 00:42:58;;;;;;;26.27;4.22;;;13.60;99.90;;;;;;4788510;29;20121;-53
2022/10/24 00:45:40;;;;;;;;;;;13.50;99.90;;;;;;4790750;29;20850;-54
2022/10/24 00:48:27;;;;;;;17.33;4.03;;;13.50;99.90;;;;;;4790098;29;20701;-53
2022/10/24 00:51:01;;;;;;;18.50;4.90;;;13.50;99.90;;;;;;4789102;29;20050;-54
2022/10/24 00:53:30;;;;;;;17.60;3.88;;;13.50;99.90;;;;;;4789330;29;20772;-53
2022/10/24 00:56:01;;;;;;;9.70;3.53;;;13.40;99.90;;;;;;4787918;29;20337;-55
2022/10/24 00:58:29;;;;;;;18.45;4.40;;;13.40;99.90;;;;;;4788743;29;20543;-54
2022/10/24 01:00:56;;;;;;;20.30;4.10;;;13.40;99.90;;;;;;4788387;29;20053;-54
2022/10/24 01:03:24;;;;;;;14.63;4.25;;;13.40;99.90;;;;;;4802264;29;20229;-54
2022/10/24 01:06:04;;;;;;;22.02;5.90;;;13.40;99.90;;;;;;4803157;29;20160;-55
2022/10/24 01:09:05;;;;;;;20.92;3.20;;;13.40;99.90;;;;;;4788093;29;20049;-57
2022/10/24 01:12:14;;;;;;;21.75;4.60;;;13.40;99.90;;;;;;4802459;29;21118;-55
2022/10/24 01:14:52;;;;;;;20.52;3.60;;;13.30;99.90;;;;;;4786729;29;20076;-56
2022/10/24 01:17:48;;;;;;;16.98;3.50;;;13.40;99.90;;;;;;4789616;29;20060;-55
2022/10/24 01:20:34;;;;;;;33.08;6.38;;;13.40;99.90;;;;;;4801816;29;20050;-55
2022/10/24 01:23:30;;;;;;;21.40;3.53;;;13.30;99.90;;;;;;4787058;29;20041;-55
2022/10/24 01:26:52;;;;;;;26.60;4.22;;;13.30;99.90;;;;;;4785189;29;20049;-55
2022/10/24 01:30:04;;;;;;;22.30;3.92;;;13.30;99.90;;;;;;4786133;29;20610;-54
2022/10/24 01:32:46;;;;;;;14.00;3.33;;;13.20;99.90;;;;;;4786648;29;20567;-56
2022/10/24 01:35:39;;;;;;;17.98;4.13;;;13.20;99.90;;;;;;4789329;29;20772;-56
2022/10/24 01:38:10;;;;;;;14.93;3.45;;;13.10;99.90;;;;;;4787589;29;20058;-56
2022/10/24 01:41:16;;;;;;;25.25;4.57;;;13.10;99.90;;;;;;4789395;29;20857;-55
2022/10/24 01:44:03;;;;;;;8.32;3.33;;;13.10;99.90;;;;;;4788588;29;20229;-54
2022/10/24 01:46:40;;;;;;;;;;;13.10;99.90;;;;;;4789520;29;20406;-55
2022/10/24 01:49:15;;;;;;;12.07;3.42;;;13.10;99.90;;;;;;4803194;29;20375;-55
2022/10/24 01:51:44;;;;;;;15.68;3.25;;;13.10;99.90;;;;;;4788297;29;20485;-55
2022/10/24 01:54:13;;;;;;;27.13;5.47;;;13.10;99.90;;;;;;4788803;29;20846;-54
2022/10/24 01:56:40;;;;;;;16.25;3.22;;;13.10;99.90;;;;;;4772493;29;20045;-54
2022/10/24 01:59:27;;;;;;;11.20;3.58;;;13.10;99.90;;;;;;4767440;29;20897;-55
2022/10/24 02:02:07;;;;;;;19.02;3.53;;;13.10;99.90;;;;;;4773070;29;20045;-55
2022/10/24 02:04:37;;;;;;;17.38;4.38;;;13.20;99.90;;;;;;4791358;29;20050;-54
2022/10/24 02:07:08;;;;;;;6.90;3.35;;;13.20;99.90;;;;;;4791260;29;20049;-54
2022/10/24 02:09:38;;;;;;;29.55;3.72;;;13.20;99.90;;;;;;4789848;29;20068;-55
2022/10/24 02:12:09;;;;;;;14.07;3.20;;;13.20;99.90;;;;;;4792988;29;20926;-55
2022/10/24 02:14:44;;;;;;;9.27;3.17;;;13.20;99.90;;;;;;4791616;29;20621;-53
2022/10/24 02:17:11;;;;;;;11.50;2.95;;;13.20;99.90;;;;;;4806179;29;20050;-55
2022/10/24 02:19:38;;;;;;;16.80;3.55;;;13.20;99.90;;;;;;4791124;29;20414;-55
2022/10/24 02:22:05;;;;;;;;;;;13.20;99.90;;;;;;4781340;29;20596;-55
2022/10/24 02:24:49;;;;;;;16.13;4.50;;;13.20;99.90;;;;;;4790945;29;20803;-54
2022/10/24 02:27:24;;;;;;;18.65;3.30;;;13.20;99.90;;;;;;4770075;29;20161;-55
2022/10/24 02:30:03;;;;;;;10.23;3.22;;;13.20;99.90;;;;;;4790713;29;20834;-55
2022/10/24 02:32:40;;;;;;;19.65;3.67;;;13.30;99.90;;;;;;4791803;29;20228;-54
2022/10/24 02:35:10;;;;;;;12.85;3.45;;;13.30;99.90;;;;;;4789433;29;20041;-54
2022/10/24 02:37:46;;;;;;;13.35;3.80;;;13.30;99.90;;;;;;4792758;29;20231;-55
2022/10/24 02:40:16;;;;;;;22.23;3.95;;;13.20;99.90;;;;;;4791787;29;20108;-55
2022/10/24 02:42:46;;;;;;;11.32;2.60;;;13.30;99.90;;;;;;4805475;29;20116;-54
2022/10/24 02:45:15;;;;;;;18.30;4.28;;;13.30;99.90;;;;;;4791168;29;20843;-54
2022/10/24 02:47:43;;;;;;;12.75;3.38;;;13.30;99.90;;;;;;4805225;29;20305;-55
2022/10/24 02:50:12;;;;;;;18.55;3.92;;;13.30;99.90;;;;;;4792358;29;20483;-55
2022/10/24 02:52:40;;;;;;;18.88;3.28;;;13.30;99.90;;;;;;4790715;29;20355;-54
2022/10/24 02:55:08;;;;;;;13.77;2.85;;;13.30;99.90;;;;;;4792364;29;20060;-54
2022/10/24 02:57:35;;;;;;;28.00;3.88;;;13.30;99.90;;;;;;4791819;29;20037;-54
2022/10/24 03:00:02;;;;;;;20.73;3.30;;;13.30;99.90;;;;;;4791774;29;20682;-54
2022/10/24 03:02:29;;;;;;;24.20;4.70;;;13.30;99.90;;;;;;4805006;29;20038;-55
2022/10/24 03:04:56;;;;;;;17.15;6.20;;;13.30;99.90;;;;;;4790309;29;20065;-54
2022/10/24 03:07:23;;;;;;;;;;;13.30;99.90;;;;;;4793051;29;20809;-53
2022/10/24 03:09:50;;;;;;;24.50;3.60;;;13.30;99.90;;;;;;4790738;29;20043;-55
2022/10/24 03:12:17;;;;;;;10.57;2.90;;;13.30;99.90;;;;;;4790023;29;20478;-55
2022/10/24 03:14:44;;;;;;;33.05;4.03;;;13.30;99.90;;;;;;4790817;29;20213;-55
2022/10/24 03:17:11;;;;;;;23.83;2.78;;;13.30;99.90;;;;;;4790762;29;20153;-55
2022/10/24 03:19:38;;;;;;;;;;;13.30;99.90;;;;;;4791708;29;20060;-55
2022/10/24 03:22:04;;;;;;;21.40;4.38;;;13.30;99.90;;;;;;4790643;29;19966;-56
2022/10/24 03:24:31;;;;;;;24.33;2.80;;;13.30;99.90;;;;;;4787330;29;20221;-55
2022/10/24 03:27:10;;;;;;;14.70;4.22;;;13.30;99.90;;;;;;4791558;29;20049;-56
2022/10/24 03:29:37;;;;;;;28.27;5.22;;;13.30;99.90;;;;;;4790852;29;20042;-55
2022/10/24 03:32:05;;;;;;;17.23;3.05;;;13.30;99.90;;;;;;4805713;29;20050;-56
2022/10/24 03:34:32;;;;;;;42.80;3.40;;;13.20;99.90;;;;;;4789985;29;20210;-55
2022/10/24 03:36:59;;;;;;;8.85;2.53;;;13.30;99.90;;;;;;4791659;29;20426;-55
2022/10/24 03:39:26;;;;;;;13.70;2.65;;;13.20;99.90;;;;;;4791741;29;20060;-56
2022/10/24 03:41:53;;;;;;;21.25;3.40;;;13.30;99.90;;;;;;4802859;29;20072;-55
2022/10/24 03:44:19;;;;;;;20.05;2.97;;;13.30;99.90;;;;;;4791258;29;20478;-56
2022/10/24 03:46:46;;;;;;;11.48;2.70;;;13.30;99.90;;;;;;4774784;29;20129;-56
2022/10/24 03:49:13;;;;;;;;;;;13.30;99.90;;;;;;4805028;29;20049;-56
2022/10/24 03:51:40;;;;;;;17.92;2.97;;;13.30;99.90;;;;;;4792125;29;20860;-56
2022/10/24 03:54:07;;;;;;;;;;;13.30;99.90;;;;;;4790545;29;20644;-55
2022/10/24 03:56:33;;;;;;;12.88;2.30;;;13.30;99.90;;;;;;4790463;29;20104;-56
2022/10/24 03:59:00;;;;;;;;;;;13.30;99.90;;;;;;4791666;29;20386;-55
2022/10/24 04:01:27;;;;;;;10.65;2.67;;;13.30;99.90;;;;;;4790695;29;19986;-55
2022/10/24 04:03:54;;;;;;;6.65;2.30;;;13.30;99.90;;;;;;4789018;29;20150;-56
2022/10/24 04:06:21;;;;;;;11.02;1.83;;;13.40;99.90;;;;;;4789159;29;20648;-56
2022/10/24 04:08:48;;;;;;;;;;;13.40;99.90;;;;;;4790300;29;20124;-54
2022/10/24 04:11:15;;;;;;;7.15;2.47;;;13.50;99.90;;;;;;4790288;29;19934;-56
2022/10/24 04:13:42;;;;;;;21.40;2.70;;;13.50;99.90;;;;;;4788665;29;20293;-55
2022/10/24 04:16:09;;;;;;;11.80;3.00;;;13.60;99.90;;;;;;4789573;29;20164;-54
2022/10/24 04:18:35;;;;;;;;;;;13.60;99.90;;;;;;4802564;29;20396;-58
2022/10/24 04:21:03;;;;;;;15.55;2.03;;;13.70;99.90;;;;;;4789151;29;20100;-55
2022/10/24 04:23:34;;;;;;;10.85;2.70;;;13.70;99.90;;;;;;4787620;29;20080;-54
2022/10/24 04:26:01;;;;;;;5.20;2.10;;;13.60;99.90;;;;;;4785986;29;20606;-53
2022/10/24 04:28:28;;;;;;;;;;;13.70;99.90;;;;;;4789011;29;20791;-53
2022/10/24 04:30:56;;;;;;;22.08;2.17;;;13.70;99.90;;;;;;4788016;29;19928;-55
2022/10/24 04:33:23;;;;;;;16.17;2.22;;;13.70;99.90;;;;;;4788220;29;20169;-56
2022/10/24 04:35:51;;;;;;;10.70;2.65;;;13.70;99.90;;;;;;4789084;29;20252;-55
2022/10/24 04:38:18;;;;;;;19.23;2.33;;;13.70;99.90;;;;;;4786614;29;20464;-55
2022/10/24 04:40:51;;;;;;;14.90;2.17;;;13.60;99.90;;;;;;4772543;29;20247;-55
2022/10/24 04:43:20;;;;;;;17.00;2.47;;;13.60;99.90;;;;;;4778286;29;20064;-54
2022/10/24 04:45:47;;;;;;;20.75;3.17;;;13.60;99.90;;;;;;4789046;29;20357;-55
2022/10/24 04:48:14;;;;;;;20.83;3.25;;;13.60;99.90;;;;;;4788795;29;20155;-55
2022/10/24 04:50:43;;;;;;;21.67;2.90;;;13.50;99.90;;;;;;4788458;29;20996;-54
2022/10/24 04:53:11;;;;;;;15.77;2.75;;;13.50;99.90;;;;;;4787901;29;20729;-55
2022/10/24 04:55:38;;;;;;;10.23;2.30;;;13.50;99.90;;;;;;4787549;29;20277;-55
2022/10/24 04:58:05;;;;;;;14.13;1.85;;;13.50;99.90;;;;;;4772296;29;20998;-57
2022/10/24 05:00:32;;;;;;;11.38;2.13;;;13.50;99.90;;;;;;4802541;29;20171;-55
2022/10/24 05:02:59;;;;;;;;;;;13.50;99.90;;;;;;4801740;29;20129;-56
2022/10/24 05:05:26;;;;;;;13.40;2.38;;;13.50;99.90;;;;;;4788044;29;20619;-55
2022/10/24 05:07:53;;;;;;;13.73;2.13;;;13.50;99.90;;;;;;4788228;29;20733;-55
2022/10/24 05:10:20;;;;;;;;;;;13.50;99.90;;;;;;4789439;29;20264;-55
2022/10/24 05:12:47;;;;;;;8.07;1.80;;;13.40;99.90;;;;;;4801973;29;19935;-59
2022/10/24 05:15:15;;;;;;;8.75;2.00;;;13.50;99.90;;;;;;4788867;29;20227;-64
2022/10/24 05:17:42;;;;;;;5.03;1.98;;;13.40;99.90;;;;;;4790757;29;20264;-61
2022/10/24 05:20:09;;;;;;;6.15;1.50;;;13.40;99.90;;;;;;4785745;29;20156;-55
2022/10/24 05:22:36;;;;;;;2.83;1.55;;;13.40;99.90;;;;;;4788230;29;20484;-54
2022/10/24 05:25:03;;;;;;;10.80;2.10;;;13.30;99.90;;;;;;4801541;29;20273;-56
2022/10/24 05:27:30;;;;;;;17.38;2.40;;;13.30;99.90;;;;;;4785572;29;20240;-57
2022/10/24 05:29:57;;;;;;;5.82;2.08;;;13.30;99.90;;;;;;4788457;29;20233;-57
2022/10/24 05:32:24;;;;;;;30.73;3.50;;;13.20;99.90;;;;;;4769928;29;20383;-56
2022/10/24 05:34:51;;;;;;;15.50;3.67;;;13.10;99.90;;;;;;4788093;29;20871;-56
2022/10/24 05:37:18;;;;;;;9.93;2.95;;;13.10;99.90;;;;;;4772083;29;20368;-56
2022/10/24 05:39:45;;;;;;;22.73;3.20;;;13.10;99.90;;;;;;4794452;29;20264;-53
2022/10/24 05:42:13;;;;;;;16.70;2.60;;;13.10;99.90;;;;;;4776550;29;20411;-55
2022/10/24 05:44:40;;;;;;;11.77;2.53;;;13.00;99.90;;;;;;4759713;29;20287;-56
2022/10/24 05:47:08;;;;;;;9.52;2.45;;;13.00;99.90;;;;;;4785243;29;20504;-53
2022/10/24 05:49:35;;;;;;;14.57;2.17;;;13.00;99.90;;;;;;4793304;29;20360;-52
2022/10/24 05:52:03;;;;;;;11.02;2.13;;;13.00;99.90;;;;;;4807467;29;20068;-53
2022/10/24 05:54:30;;;;;;;9.88;2.13;;;13.00;99.90;;;;;;4801842;29;20234;-56
2022/10/24 05:57:17;;;;;;;7.03;1.77;;;13.00;99.90;;;;;;4805848;29;20085;-55
2022/10/24 05:59:44;;;;;;;7.38;2.40;;;13.00;99.90;;;;;;4774771;29;20647;-56
2022/10/24 06:02:17;;;;;;;14.77;2.80;;;13.00;99.90;;;;;;4791735;29;20748;-54
2022/10/24 06:04:44;;;;;;;7.95;1.98;;;13.00;99.90;;;;;;4791281;29;20267;-57
2022/10/24 06:07:10;;;;;;;;;;;13.00;99.90;;;;;;4793016;29;20206;-55
2022/10/24 06:09:39;;;;;;;15.18;2.40;;;13.10;99.90;;;;;;4791674;29;20553;-56
2022/10/24 06:12:08;;;;;;;8.73;2.88;;;13.10;99.90;;;;;;4791883;29;20288;-56
2022/10/24 06:14:37;;;;;;;11.30;2.42;;;13.10;99.90;;;;;;4791327;29;20478;-56
2022/10/24 06:17:05;;;;;;;22.23;2.42;;;13.10;99.90;;;;;;4767957;29;20547;-55
2022/10/24 06:19:32;;;;;;;24.30;3.10;;;13.10;99.90;;;;;;4790027;29;20464;-55
2022/10/24 06:21:59;;;;;;;17.67;3.10;;;13.10;99.90;;;;;;4788877;29;20467;-55
2022/10/24 06:24:26;;;;;;;15.10;2.72;;;13.10;99.90;;;;;;4789652;29;20388;-55
2022/10/24 06:26:52;;;;;;;17.13;2.30;;;13.10;99.90;;;;;;4803232;29;20554;-56
2022/10/24 06:29:19;;;;;;;;;;;13.10;99.90;;;;;;4791232;29;20049;-55
2022/10/24 06:31:46;;;;;;;24.52;3.45;;;13.10;99.90;;;;;;4791531;29;20250;-56
2022/10/24 06:34:13;;;;;;;;;;;13.10;99.90;;;;;;4804018;29;20054;-57
2022/10/24 06:36:40;;;;;;;8.82;1.90;;;13.10;99.90;;;;;;4791793;29;20429;-57
2022/10/24 06:39:12;;;;;;;15.10;2.53;;;13.10;99.90;;;;;;4804188;29;20293;-56
2022/10/24 06:41:38;;;;;;;10.88;2.83;;;13.10;99.90;;;;;;4791379;29;20124;-57
2022/10/24 06:44:13;;;;;;;8.77;2.90;;;13.10;99.90;;;;;;4804651;29;20053;-56
2022/10/24 06:46:40;;;;;;;7.70;1.88;;;13.10;99.90;;;;;;4804135;29;20198;-57
2022/10/24 06:49:07;;;;;;;6.70;1.90;;;13.10;99.90;;;;;;4803954;29;20058;-57
2022/10/24 06:51:34;;;;;;;8.77;2.33;;;13.20;99.90;;;;;;4791143;29;20276;-57
2022/10/24 06:54:01;;;;;;;;;;;13.20;99.90;;;;;;4790080;29;20061;-57
2022/10/24 06:56:28;;;;;;;7.85;2.42;;;13.10;99.90;;;;;;4791145;29;20303;-56
2022/10/24 06:58:54;;;;;;;7.57;2.35;;;13.10;99.90;;;;;;4789195;29;20177;-56
2022/10/24 07:01:23;;;;;;;;;;;13.10;99.90;;;;;;4803205;29;20838;-56
2022/10/24 07:03:51;;;;;;;5.80;1.92;;;13.10;99.90;;;;;;4774033;29;20241;-57
2022/10/24 07:06:21;;;;;;;7.75;2.33;;;13.10;99.90;;;;;;4790238;29;20045;-56
2022/10/24 07:08:57;;;;;;;18.17;2.92;;;13.10;99.90;;;;;;4788081;29;20297;-57
2022/10/24 07:11:24;;;;;;;8.55;2.63;;;13.10;99.90;;;;;;4770605;29;20508;-55
2022/10/24 07:13:51;;;;;;;7.97;2.28;;;13.10;99.90;;;;;;4790024;29;20148;-54
2022/10/24 07:16:23;;;;;;;6.13;2.67;;;13.10;99.90;;;;;;4772938;29;20969;-55
2022/10/24 07:18:51;;;;;;;8.85;3.00;;;13.20;99.90;;;;;;4776316;29;20331;-55
2022/10/24 07:21:21;;;;;;;14.30;2.70;;;13.10;99.90;;;;;;4790315;29;20045;-55
2022/10/24 07:23:50;;;;;;;11.85;2.72;;;13.20;99.90;;;;;;4789547;29;20494;-55
2022/10/24 07:26:18;;;;;;;7.97;2.78;;;13.20;99.90;;;;;;4779866;29;20408;-55
2022/10/24 07:28:46;;;;;;;12.30;3.60;;;13.20;99.90;;;;;;4789278;29;20492;-55
2022/10/24 07:31:16;;;;;;;6.68;3.15;;;13.20;99.90;;;;;;4781740;29;20547;-53
2022/10/24 07:33:43;;;;;;;11.60;2.85;;;13.20;99.90;;;;;;4790298;29;20148;-56
2022/10/24 07:36:15;;;;;;;5.57;2.50;;;13.20;99.90;;;;;;4790139;29;20156;-54
2022/10/24 07:38:41;;;;;;;21.92;3.63;;;13.20;99.90;;;;;;4789560;29;20064;-53
2022/10/24 07:41:08;;;;;;;;;;;13.20;99.90;;;;;;4790468;29;20834;-53
2022/10/24 07:43:35;;;;;;;8.38;3.20;;;13.20;99.90;;;;;;4789740;29;20592;-54
2022/10/24 07:46:10;;;;;;;12.77;3.63;;;13.20;99.90;;;;;;4773600;29;20225;-54
2022/10/24 07:48:38;;;;;;;7.35;3.13;;;13.30;99.90;;;;;;4789411;29;20355;-53
2022/10/24 07:51:06;;;;;;;10.05;3.67;;;13.30;99.90;;;;;;4790358;29;20230;-53
2022/10/24 07:53:34;;;;;;;10.18;3.25;;;13.30;99.90;;;;;;4788834;29;20266;-55
2022/10/24 07:56:04;;;;;;;9.77;2.97;;;13.40;99.90;;;;;;4790081;29;20038;-54
2022/10/24 07:58:31;;;;;;;6.10;3.25;;;13.40;99.90;;;;;;4789899;29;20301;-53
2022/10/24 08:01:03;;;;;;;8.45;2.83;;;13.40;99.90;;;;;;4802509;29;20231;-54
2022/10/24 08:03:29;;;;;;;15.25;3.05;;;13.40;99.90;;;;;;4789626;29;20065;-52
2022/10/24 08:05:56;;;;;;;8.18;2.83;;;13.40;99.90;;;;;;4802905;29;20315;-55
2022/10/24 08:08:23;;;;;;;13.95;3.60;;;13.50;99.90;;;;;;4789757;29;20587;-51
2022/10/24 08:11:10;;;;;;;7.38;3.72;;;13.40;99.90;;;;;;4789693;29;20044;-50
2022/10/24 08:13:37;;;;;;;10.73;4.15;;;13.40;99.90;;;;;;4786790;29;20631;-53
2022/10/24 08:16:06;;;;;;;17.63;3.50;;;13.40;99.90;;;;;;4790323;29;20133;-53
2022/10/24 08:18:33;;;;;;;9.98;2.92;;;13.40;99.90;;;;;;4788716;29;20502;-54
2022/10/24 08:21:08;;;;;;;11.45;3.30;;;13.30;99.90;;;;;;4803220;29;20233;-52
2022/10/24 08:23:36;;;;;;;11.93;3.22;;;13.30;99.90;;;;;;4788721;29;20350;-52
2022/10/24 08:26:05;;;;;;;10.75;3.33;;;13.30;99.90;;;;;;4789533;29;20709;-53
2022/10/24 08:28:31;;;;;;;9.35;2.70;;;13.30;99.90;;;;;;4788470;29;20108;-54
2022/10/24 08:31:01;;;;;;;13.02;3.53;;;13.30;99.90;;;;;;4788162;29;20053;-52
2022/10/24 08:33:29;;;;;;;15.02;3.78;;;13.30;99.90;;;;;;4789340;29;20752;-53
2022/10/24 08:36:02;;;;;;;10.38;2.63;;;13.20;99.90;;;;;;4785499;29;20049;-53
2022/10/24 08:38:29;;;;;;;10.60;2.72;;;13.20;99.90;;;;;;4788841;29;20157;-55
2022/10/24 08:40:56;;;;;;;9.07;2.67;;;13.20;99.90;;;;;;4788887;29;20403;-54
2022/10/24 08:43:24;;;;;;;8.27;3.38;;;13.30;99.90;;;;;;4787818;29;20056;-53
2022/10/24 08:46:22;;;;;;;9.77;2.60;;;13.20;99.90;;;;;;4789345;29;20388;-55
2022/10/24 08:48:54;;;;;;;7.30;2.80;;;13.20;99.90;;;;;;4788430;29;20598;-54
2022/10/24 08:51:40;;;;;;;6.10;2.42;;;13.20;99.90;;;;;;4789413;29;20281;-55
2022/10/24 08:54:16;;;;;;;21.55;2.97;;;13.20;99.90;;;;;;4788539;29;20042;-55
2022/10/24 08:56:44;;;;;;;16.55;2.78;;;13.20;99.90;;;;;;4793108;29;20375;-55
2022/10/24 08:59:11;;;;;;;10.02;2.83;;;13.20;99.90;;;;;;4788997;29;21052;-55
2022/10/24 09:01:51;;;;;;;16.67;3.45;;;13.20;99.90;;;;;;4788905;29;20387;-54
2022/10/24 09:04:23;;;;;;;21.13;3.10;;;13.20;99.90;;;;;;4786230;29;20372;-55
2022/10/24 09:06:52;;;;;;;10.15;2.25;;;13.20;99.90;;;;;;4789006;29;20045;-54
2022/10/24 09:09:32;;;;;;;5.47;2.05;;;13.20;99.90;;;;;;4789436;29;20076;-60
2022/10/24 09:12:06;;;;;;;6.05;2.72;;;13.20;99.90;;;;;;4771295;29;20787;-54
2022/10/24 09:14:37;;;;;;;9.93;2.85;;;13.20;99.90;;;;;;4788314;29;20069;-53
2022/10/24 09:17:22;;;;;;;6.65;2.42;;;13.20;99.90;;;;;;4789158;29;20466;-51
2022/10/24 09:20:05;;;;;;;8.70;2.88;;;13.20;99.90;;;;;;4788493;29;20084;-52
2022/10/24 09:22:34;;;;;;;6.90;3.65;;;13.20;99.90;;;;;;4788170;29;20037;-53
2022/10/24 09:25:10;;;;;;;14.80;6.78;;;13.30;99.90;;;;;;4788083;29;20687;-55
2022/10/24 09:27:39;;;;;;;15.32;7.68;;;13.30;99.90;;;;;;4802279;29;20064;-53
2022/10/24 09:30:13;;;;;;;24.00;8.30;;;13.30;99.90;;;;;;4787585;29;20286;-53
2022/10/24 09:32:41;;;;;;;15.20;6.97;;;13.30;99.90;;;;;;4787777;29;20332;-52
2022/10/24 09:35:15;;;;;;;11.98;4.18;;;13.30;99.90;;;;;;4788810;29;20396;-53
2022/10/24 09:37:44;;;;;;;10.15;4.25;;;13.30;99.90;;;;;;4787299;29;20483;-53
2022/10/24 09:40:33;;;;;;;17.80;4.32;;;13.30;99.90;;;;;;4788490;29;20041;-53
2022/10/24 09:43:10;;;;;;;8.70;2.97;;;13.30;99.90;;;;;;4786422;29;20077;-54
2022/10/24 09:45:45;;;;;;;10.43;3.72;;;13.30;99.90;;;;;;4781739;29;20552;-54
2022/10/24 09:48:22;;;;;;;6.25;3.38;;;13.20;99.90;;;;;;4788624;29;21049;-53
2022/10/24 09:50:55;;;;;;;7.43;2.95;;;13.20;99.90;;;;;;4788105;29;20563;-53
2022/10/24 09:53:33;;;;;;;7.38;3.50;;;13.30;99.90;;;;;;4787944;29;20735;-54
2022/10/24 09:56:12;;;;;;;13.15;3.40;;;13.30;99.90;;;;;;4787720;29;20598;-54
2022/10/24 09:58:40;;;;;;;5.47;2.60;;;13.30;99.90;;;;;;4786174;29;20069;-55
2022/10/24 10:01:19;;;;;;;5.40;3.50;;;13.30;99.90;;;;;;4786623;29;20775;-53
2022/10/24 10:04:05;;;;;;;5.95;2.83;;;13.30;99.90;;;;;;4785896;29;20941;-54
2022/10/24 10:06:48;;;;;;;6.00;3.40;;;13.30;99.90;;;;;;4787957;29;20380;-53
2022/10/24 10:09:24;;;;;;;10.50;4.35;;;13.30;99.90;;;;;;4788168;29;20378;-54
2022/10/24 10:11:56;;;;;;;10.02;3.65;;;13.30;99.90;;;;;;4788435;29;20540;-55
2022/10/24 10:14:28;;;;;;;11.82;5.32;;;13.20;99.90;;;;;;4787162;29;20049;-55
2022/10/24 10:17:05;;;;;;;17.02;5.03;;;13.20;99.90;;;;;;4788552;29;20876;-54
2022/10/24 10:19:36;;;;;;;15.77;5.03;;;13.20;99.90;;;;;;4788383;29;20297;-55
2022/10/24 10:22:19;;;;;;;16.02;6.25;;;13.10;99.90;;;;;;4787592;29;20083;-55
2022/10/24 10:24:46;;;;;;;9.30;5.40;;;13.10;99.90;;;;;;4804056;29;20582;-53
2022/10/24 10:27:25;;;;;;;19.10;4.78;;;13.10;99.90;;;;;;4789866;29;20481;-54
2022/10/24 10:30:16;;;;;;;14.15;4.65;;;13.10;99.90;;;;;;4789029;29;20050;-54
2022/10/24 10:33:02;;;;;;;11.60;5.68;;;13.10;99.90;;;;;;4789367;29;20140;-54
2022/10/24 10:36:02;;;;;;;7.97;4.63;;;13.10;99.90;;;;;;4791742;29;20682;-55
2022/10/24 10:38:35;;;;;;;11.18;4.35;;;13.20;99.90;;;;;;4804632;29;20334;-54
2022/10/24 10:41:32;;;;;;;7.70;4.30;;;13.10;99.90;;;;;;4791757;29;20045;-54
2022/10/24 10:44:32;;;;;;;10.10;3.45;;;13.20;99.90;;;;;;4769021;29;20316;-54
2022/10/24 10:47:23;;;;;;;8.73;3.80;;;13.10;99.90;;;;;;4791390;29;20258;-53
2022/10/24 10:49:56;;;;;;;9.63;4.28;;;13.10;99.90;;;;;;4804508;29;20141;-53
2022/10/24 10:52:29;;;;;;;6.97;3.33;;;13.20;99.90;;;;;;4789874;29;20145;-53
2022/10/24 10:55:27;;;;;;;5.22;3.92;;;13.20;99.90;;;;;;4805410;29;20164;-53
2022/10/24 10:58:24;;;;;;;8.18;3.72;;;13.20;99.90;;;;;;4790850;29;20374;-53
2022/10/24 11:00:54;;;;;;;15.75;3.70;;;13.20;99.90;;;;;;4780772;29;20057;-53
2022/10/24 11:03:30;;;;;;;10.80;3.70;;;13.20;99.90;;;;;;4790293;29;20382;-55
2022/10/24 11:06:27;;;;;;;4.22;2.05;;;13.20;99.90;;;;;;4790748;29;20218;-55
2022/10/24 11:09:27;;;;;;;6.00;2.45;;;13.10;99.90;;;;;;4790319;29;20056;-55
2022/10/24 11:12:15;;;;;;;6.70;2.15;;;13.10;99.90;;;;;;4781892;29;20378;-55
2022/10/24 11:14:47;;;;;;;4.93;2.22;;;13.00;99.90;;;;;;4788329;29;20825;-54
2022/10/24 11:17:22;;;;;;;8.13;2.10;;;13.00;99.90;;;;;;4790649;29;21017;-55
2022/10/24 11:19:55;;;;;;;6.78;2.55;;;12.90;99.90;;;;;;4788950;29;20911;-55
2022/10/24 11:22:27;;;;;;;4.57;2.17;;;12.90;99.90;;;;;;4789171;29;20139;-55
2022/10/24 11:25:07;;;;;;;4.45;2.50;;;12.80;99.90;;;;;;4791328;29;20292;-54
2022/10/24 11:27:42;;;;;;;9.57;1.80;;;12.80;99.90;;;;;;4790034;29;20401;-55
2022/10/24 11:30:19;;;;;;;5.65;2.60;;;12.80;99.90;;;;;;4803835;29;20473;-55
2022/10/24 11:33:20;;;;;;;3.33;2.20;;;12.80;99.90;;;;;;4776023;29;20356;-55
2022/10/24 11:36:05;;;;;;;7.60;3.05;;;12.80;99.90;;;;;;4783341;29;20543;-53
2022/10/24 11:38:38;;;;;;;5.78;2.35;;;12.80;99.90;;;;;;4790525;29;20056;-55
2022/10/24 11:41:19;;;;;;;3.58;2.00;;;12.80;99.90;;;;;;4803294;29;20928;-54
2022/10/24 11:43:47;;;;;;;6.82;2.60;;;12.70;99.90;;;;;;4788989;29;20331;-55
2022/10/24 11:46:22;;;;;;;4.57;2.10;;;12.70;99.90;;;;;;4787462;29;20374;-53
2022/10/24 11:48:57;;;;;;;4.43;2.13;;;12.60;99.90;;;;;;4790886;29;20354;-55
2022/10/24 11:51:34;;;;;;;3.35;1.65;;;12.60;99.90;;;;;;4788039;29;20551;-55
2022/10/24 11:54:15;;;;;;;5.18;1.63;;;12.60;99.90;;;;;;4779592;29;20601;-55
2022/10/24 11:56:53;;;;;;;1.80;1.33;;;12.60;99.90;;;;;;4801884;29;20570;-52
2022/10/24 11:59:24;;;;;;;7.80;2.03;;;12.60;99.90;;;;;;4788641;29;20476;-53
2022/10/24 12:01:54;;;;;;;6.32;1.90;;;12.60;99.90;;;;;;4790136;29;20049;-52
2022/10/24 12:04:52;;;;;;;4.43;2.30;;;12.60;99.90;;;;;;4788495;29;20698;-54
2022/10/24 12:07:36;;;;;;;2.20;1.23;;;12.60;99.90;;;;;;4789172;29;20553;-53
2022/10/24 12:10:22;;;;;;;4.63;1.55;;;12.60;99.90;;;;;;4789355;29;20164;-54
2022/10/24 12:13:11;;;;;;;1.48;1.38;;;12.60;99.90;;;;;;4787987;29;20729;-53
2022/10/24 12:16:06;;;;;;;2.20;1.30;;;12.50;99.90;;;;;;4788958;29;20288;-54
2022/10/24 12:18:46;;;;;;;6.65;1.17;;;12.50;99.90;;;;;;4762843;29;20041;-53
2022/10/24 12:21:21;;;;;;;3.47;1.50;;;12.50;99.90;;;;;;4788186;29;20085;-53
2022/10/24 12:23:55;;;;;;;2.63;1.20;;;12.50;99.90;;;;;;4786481;29;20214;-54
2022/10/24 12:26:33;;;;;;;3.22;1.10;;;12.50;99.90;;;;;;4802649;29;20384;-53
2022/10/24 12:29:01;;;;;;;4.97;1.02;;;12.50;99.90;;;;;;4779245;29;20387;-51
2022/10/24 12:31:31;;;;;;;2.35;1.30;;;12.50;99.90;;;;;;4789851;29;20305;-50
2022/10/24 12:34:21;;;;;;;3.70;1.40;;;12.50;99.90;;;;;;4785258;29;20578;-53
2022/10/24 12:37:10;;;;;;;3.42;1.02;;;12.60;99.90;;;;;;4789107;29;20269;-53
2022/10/24 12:39:41;;;;;;;4.38;1.05;;;12.60;99.90;;;;;;4789726;29;20068;-53
2022/10/24 12:42:35;;;;;;;2.90;0.95;;;12.60;99.90;;;;;;4787918;29;20246;-53
2022/10/24 12:45:06;;;;;;;5.13;0.93;;;12.60;99.90;;;;;;4817176;29;20061;-51
2022/10/24 12:47:39;;;;;;;3.45;0.93;;;12.60;99.90;;;;;;4840904;29;20073;-51
2022/10/24 12:50:21;;;;;;;2.78;1.13;;;12.60;99.90;;;;;;4844330;29;20497;-54
2022/10/24 12:53:18;;;;;;;1.95;1.05;;;12.60;99.90;;;;;;4843718;29;20436;-52
2022/10/24 12:55:47;;;;;;;3.80;1.58;;;12.60;99.90;;;;;;4845546;29;20271;-53
2022/10/24 12:58:20;;;;;;;1.13;1.00;;;12.60;99.90;;;;;;4848804;29;20448;-52
2022/10/24 13:00:59;;;;;;;4.32;1.08;;;12.60;99.90;;;;;;4840632;29;20042;-53
2022/10/24 13:03:47;;;;;;;3.03;1.50;;;12.60;99.90;;;;;;4844229;29;20050;-54
2022/10/24 13:06:41;;;;;;;21.08;1.52;;;12.60;99.90;;;;;;4844678;29;20606;-51
2022/10/24 13:09:29;;;;;;;2.27;1.00;;;12.60;99.90;;;;;;4800468;29;20057;-55
2022/10/24 13:12:21;;;;;;;9.70;1.25;;;12.50;99.90;;;;;;4802171;29;20512;-54
2022/10/24 13:15:12;;;;;;;10.02;1.38;;;12.50;99.90;;;;;;4793642;29;20766;-53
2022/10/24 13:17:48;;;;;;;1.88;1.05;;;12.50;99.90;;;;;;4790211;29;20853;-56
2022/10/24 13:20:21;;;;;;;2.28;1.10;;;12.50;99.90;;;;;;4793326;29;20286;-53